Julian, North Carolina
Current Conditions -  °F | °C
As of 5:45 AM on Monday 22 Dec 2014 (Local Time) from KBUY Reporting Station
Haze Haze  
Wind Chill: 28°   Ceiling: 3200
Heat Index: 36°   Visibility: 6mi
Dew Point: 32°   Wind: 10mph
Humidity: 86%   Direction: 30°NNE
Pressure: 30.15"   Gusts: NA
Location:  35.91°N, 79.66°W
Report Text: KBUY 221045Z AUTO 03009KT 6SM BR FEW009 OVC032 02/00 A3015 RMK AO2 RAE07B18E38UPB05E06B15E18B38E41 P0001 T00220000
Loading
Personal Weather Stations






























Interactive Weather Map New forecast layout! Learn more

10-Day Weather Forecast

Advertisements
Track Severe Weather on mobile